sensor_id;sensor_type;location;lat;lon;timestamp;P1;durP1;ratioP1;P2;durP2;ratioP2
11921;SDS011;6021;51.182;3.160;2023-09-19T00:02:05;5.97;;;2.60;;
11921;SDS011;6021;51.182;3.160;2023-09-19T00:04:35;7.27;;;2.80;;
11921;SDS011;6021;51.182;3.160;2023-09-19T00:07:05;8.80;;;2.70;;
11921;SDS011;6021;51.182;3.160;2023-09-19T00:09:35;7.20;;;2.90;;
11921;SDS011;6021;51.182;3.160;2023-09-19T00:12:04;8.00;;;2.50;;
11921;SDS011;6021;51.182;3.160;2023-09-19T00:14:35;6.23;;;2.70;;
11921;SDS011;6021;51.182;3.160;2023-09-19T00:17:04;7.93;;;2.73;;
11921;SDS011;6021;51.182;3.160;2023-09-19T00:19:34;9.07;;;3.00;;
11921;SDS011;6021;51.182;3.160;2023-09-19T00:22:04;7.23;;;2.60;;
11921;SDS011;6021;51.182;3.160;2023-09-19T00:24:32;7.17;;;2.93;;
11921;SDS011;6021;51.182;3.160;2023-09-19T00:27:00;7.43;;;2.60;;
11921;SDS011;6021;51.182;3.160;2023-09-19T00:29:29;8.07;;;2.60;;
11921;SDS011;6021;51.182;3.160;2023-09-19T00:31:58;6.40;;;2.67;;
11921;SDS011;6021;51.182;3.160;2023-09-19T00:34:27;7.10;;;2.70;;
11921;SDS011;6021;51.182;3.160;2023-09-19T00:36:56;8.57;;;2.60;;
11921;SDS011;6021;51.182;3.160;2023-09-19T00:39:26;7.00;;;2.80;;
11921;SDS011;6021;51.182;3.160;2023-09-19T00:41:54;7.80;;;2.50;;
11921;SDS011;6021;51.182;3.160;2023-09-19T00:44:22;6.87;;;2.50;;
11921;SDS011;6021;51.182;3.160;2023-09-19T00:46:51;5.97;;;2.60;;
11921;SDS011;6021;51.182;3.160;2023-09-19T00:49:21;7.13;;;2.73;;
11921;SDS011;6021;51.182;3.160;2023-09-19T00:51:49;7.43;;;2.60;;
11921;SDS011;6021;51.182;3.160;2023-09-19T00:54:18;7.13;;;2.37;;
11921;SDS011;6021;51.182;3.160;2023-09-19T00:56:47;5.93;;;2.50;;
11921;SDS011;6021;51.182;3.160;2023-09-19T00:59:17;8.13;;;2.77;;
11921;SDS011;6021;51.182;3.160;2023-09-19T01:01:45;6.70;;;2.40;;
11921;SDS011;6021;51.182;3.160;2023-09-19T01:04:15;6.23;;;2.50;;
11921;SDS011;6021;51.182;3.160;2023-09-19T01:06:44;9.83;;;2.83;;
11921;SDS011;6021;51.182;3.160;2023-09-19T01:09:13;7.80;;;3.00;;
11921;SDS011;6021;51.182;3.160;2023-09-19T01:11:42;7.50;;;2.53;;
11921;SDS011;6021;51.182;3.160;2023-09-19T01:14:28;9.93;;;2.93;;
11921;SDS011;6021;51.182;3.160;2023-09-19T01:17:17;5.63;;;2.60;;
11921;SDS011;6021;51.182;3.160;2023-09-19T01:20:01;9.73;;;2.90;;
11921;SDS011;6021;51.182;3.160;2023-09-19T01:22:27;8.67;;;2.53;;
11921;SDS011;6021;51.182;3.160;2023-09-19T01:31:09;8.13;;;2.60;;
11921;SDS011;6021;51.182;3.160;2023-09-19T01:33:58;7.87;;;2.90;;
11921;SDS011;6021;51.182;3.160;2023-09-19T01:36:34;7.77;;;2.60;;
11921;SDS011;6021;51.182;3.160;2023-09-19T01:39:05;7.30;;;2.63;;
11921;SDS011;6021;51.182;3.160;2023-09-19T01:41:56;7.83;;;2.90;;
11921;SDS011;6021;51.182;3.160;2023-09-19T01:44:31;8.47;;;2.97;;
11921;SDS011;6021;51.182;3.160;2023-09-19T01:52:36;6.23;;;2.33;;
11921;SDS011;6021;51.182;3.160;2023-09-19T01:55:09;6.33;;;2.50;;
11921;SDS011;6021;51.182;3.160;2023-09-19T01:57:42;6.87;;;2.70;;
11921;SDS011;6021;51.182;3.160;2023-09-19T02:00:16;7.57;;;2.70;;
11921;SDS011;6021;51.182;3.160;2023-09-19T02:02:48;8.33;;;2.57;;
11921;SDS011;6021;51.182;3.160;2023-09-19T02:05:22;7.13;;;2.73;;
11921;SDS011;6021;51.182;3.160;2023-09-19T02:07:56;8.63;;;2.67;;
11921;SDS011;6021;51.182;3.160;2023-09-19T02:10:25;6.40;;;2.60;;
11921;SDS011;6021;51.182;3.160;2023-09-19T02:12:53;6.70;;;2.63;;
11921;SDS011;6021;51.182;3.160;2023-09-19T02:15:23;7.80;;;2.60;;
11921;SDS011;6021;51.182;3.160;2023-09-19T02:17:51;6.73;;;2.40;;
11921;SDS011;6021;51.182;3.160;2023-09-19T02:20:19;8.33;;;2.53;;
11921;SDS011;6021;51.182;3.160;2023-09-19T02:22:48;10.33;;;2.73;;
11921;SDS011;6021;51.182;3.160;2023-09-19T02:25:16;5.63;;;2.50;;
11921;SDS011;6021;51.182;3.160;2023-09-19T02:27:46;9.53;;;2.83;;
11921;SDS011;6021;51.182;3.160;2023-09-19T02:30:14;7.70;;;2.53;;
11921;SDS011;6021;51.182;3.160;2023-09-19T02:32:44;7.33;;;2.33;;
11921;SDS011;6021;51.182;3.160;2023-09-19T02:35:13;7.23;;;2.70;;
11921;SDS011;6021;51.182;3.160;2023-09-19T02:37:41;8.63;;;2.90;;
11921;SDS011;6021;51.182;3.160;2023-09-19T02:40:11;8.43;;;2.50;;
11921;SDS011;6021;51.182;3.160;2023-09-19T02:42:46;8.83;;;2.63;;
11921;SDS011;6021;51.182;3.160;2023-09-19T02:45:16;6.87;;;2.80;;
11921;SDS011;6021;51.182;3.160;2023-09-19T02:47:48;7.73;;;3.00;;
11921;SDS011;6021;51.182;3.160;2023-09-19T02:50:17;8.70;;;2.70;;
11921;SDS011;6021;51.182;3.160;2023-09-19T02:52:45;10.07;;;2.90;;
11921;SDS011;6021;51.182;3.160;2023-09-19T02:55:16;7.77;;;2.63;;
11921;SDS011;6021;51.182;3.160;2023-09-19T02:57:51;11.27;;;3.40;;
11921;SDS011;6021;51.182;3.160;2023-09-19T03:00:21;9.60;;;3.10;;
11921;SDS011;6021;51.182;3.160;2023-09-19T03:02:50;9.57;;;2.87;;
11921;SDS011;6021;51.182;3.160;2023-09-19T03:05:20;7.77;;;2.87;;
11921;SDS011;6021;51.182;3.160;2023-09-19T03:07:49;7.40;;;2.80;;
11921;SDS011;6021;51.182;3.160;2023-09-19T03:10:19;7.97;;;2.70;;
11921;SDS011;6021;51.182;3.160;2023-09-19T03:12:48;10.67;;;3.17;;
11921;SDS011;6021;51.182;3.160;2023-09-19T03:15:17;10.53;;;3.13;;
11921;SDS011;6021;51.182;3.160;2023-09-19T03:17:45;8.43;;;2.90;;
11921;SDS011;6021;51.182;3.160;2023-09-19T03:20:15;8.50;;;2.83;;
11921;SDS011;6021;51.182;3.160;2023-09-19T03:22:45;8.63;;;2.70;;
11921;SDS011;6021;51.182;3.160;2023-09-19T03:25:14;10.63;;;3.07;;
11921;SDS011;6021;51.182;3.160;2023-09-19T03:27:43;10.63;;;3.00;;
11921;SDS011;6021;51.182;3.160;2023-09-19T03:30:12;7.97;;;2.80;;
11921;SDS011;6021;51.182;3.160;2023-09-19T03:32:44;8.13;;;2.70;;
11921;SDS011;6021;51.182;3.160;2023-09-19T03:35:13;8.77;;;2.93;;
11921;SDS011;6021;51.182;3.160;2023-09-19T03:37:42;9.03;;;3.00;;
11921;SDS011;6021;51.182;3.160;2023-09-19T03:40:11;8.27;;;2.90;;
11921;SDS011;6021;51.182;3.160;2023-09-19T03:42:40;9.63;;;2.90;;
11921;SDS011;6021;51.182;3.160;2023-09-19T03:45:09;10.27;;;3.03;;
11921;SDS011;6021;51.182;3.160;2023-09-19T03:47:42;10.27;;;3.10;;
11921;SDS011;6021;51.182;3.160;2023-09-19T03:50:10;7.63;;;2.80;;
11921;SDS011;6021;51.182;3.160;2023-09-19T03:52:38;8.93;;;2.80;;
11921;SDS011;6021;51.182;3.160;2023-09-19T03:55:07;9.07;;;2.73;;
11921;SDS011;6021;51.182;3.160;2023-09-19T03:57:36;9.47;;;2.90;;
11921;SDS011;6021;51.182;3.160;2023-09-19T04:00:05;10.07;;;3.03;;
11921;SDS011;6021;51.182;3.160;2023-09-19T04:02:38;9.90;;;3.20;;
11921;SDS011;6021;51.182;3.160;2023-09-19T04:05:07;11.60;;;2.97;;
11921;SDS011;6021;51.182;3.160;2023-09-19T04:07:37;8.83;;;3.00;;
11921;SDS011;6021;51.182;3.160;2023-09-19T04:10:05;10.07;;;3.20;;
11921;SDS011;6021;51.182;3.160;2023-09-19T04:12:35;8.33;;;2.90;;
11921;SDS011;6021;51.182;3.160;2023-09-19T04:15:05;12.73;;;3.60;;
11921;SDS011;6021;51.182;3.160;2023-09-19T04:17:33;9.57;;;3.03;;
11921;SDS011;6021;51.182;3.160;2023-09-19T04:20:02;8.43;;;2.97;;
11921;SDS011;6021;51.182;3.160;2023-09-19T04:22:32;12.83;;;3.13;;
11921;SDS011;6021;51.182;3.160;2023-09-19T04:25:00;9.67;;;3.13;;
11921;SDS011;6021;51.182;3.160;2023-09-19T04:27:29;10.77;;;3.17;;
11921;SDS011;6021;51.182;3.160;2023-09-19T04:29:57;11.00;;;3.20;;
11921;SDS011;6021;51.182;3.160;2023-09-19T04:32:28;13.33;;;3.33;;
11921;SDS011;6021;51.182;3.160;2023-09-19T04:34:56;8.40;;;3.03;;
11921;SDS011;6021;51.182;3.160;2023-09-19T04:37:26;8.37;;;3.07;;
11921;SDS011;6021;51.182;3.160;2023-09-19T04:39:55;9.37;;;3.30;;
11921;SDS011;6021;51.182;3.160;2023-09-19T04:42:23;11.13;;;3.50;;
11921;SDS011;6021;51.182;3.160;2023-09-19T04:44:52;9.57;;;3.07;;
11921;SDS011;6021;51.182;3.160;2023-09-19T04:47:21;10.60;;;3.43;;
11921;SDS011;6021;51.182;3.160;2023-09-19T04:49:49;9.80;;;3.33;;
11921;SDS011;6021;51.182;3.160;2023-09-19T04:52:17;10.50;;;3.60;;
11921;SDS011;6021;51.182;3.160;2023-09-19T04:54:46;9.80;;;3.17;;
11921;SDS011;6021;51.182;3.160;2023-09-19T04:57:15;12.93;;;3.40;;
11921;SDS011;6021;51.182;3.160;2023-09-19T04:59:43;12.70;;;3.73;;
11921;SDS011;6021;51.182;3.160;2023-09-19T05:02:11;11.50;;;3.60;;
11921;SDS011;6021;51.182;3.160;2023-09-19T05:04:40;8.40;;;3.10;;
11921;SDS011;6021;51.182;3.160;2023-09-19T05:07:08;12.50;;;3.67;;
11921;SDS011;6021;51.182;3.160;2023-09-19T05:09:37;10.83;;;3.40;;
11921;SDS011;6021;51.182;3.160;2023-09-19T05:12:05;14.27;;;3.77;;
11921;SDS011;6021;51.182;3.160;2023-09-19T05:14:34;13.43;;;3.70;;
11921;SDS011;6021;51.182;3.160;2023-09-19T05:17:02;11.57;;;3.90;;
11921;SDS011;6021;51.182;3.160;2023-09-19T05:19:30;11.53;;;3.60;;
11921;SDS011;6021;51.182;3.160;2023-09-19T05:21:59;12.23;;;3.47;;
11921;SDS011;6021;51.182;3.160;2023-09-19T05:24:27;9.57;;;3.30;;
11921;SDS011;6021;51.182;3.160;2023-09-19T05:26:56;11.70;;;3.33;;
11921;SDS011;6021;51.182;3.160;2023-09-19T05:29:24;11.17;;;3.20;;
11921;SDS011;6021;51.182;3.160;2023-09-19T05:31:53;10.20;;;3.20;;
11921;SDS011;6021;51.182;3.160;2023-09-19T05:34:21;10.30;;;3.20;;
11921;SDS011;6021;51.182;3.160;2023-09-19T05:36:49;14.00;;;3.73;;
11921;SDS011;6021;51.182;3.160;2023-09-19T05:39:18;10.73;;;3.50;;
11921;SDS011;6021;51.182;3.160;2023-09-19T05:41:47;11.80;;;3.40;;
11921;SDS011;6021;51.182;3.160;2023-09-19T05:44:15;15.07;;;3.60;;
11921;SDS011;6021;51.182;3.160;2023-09-19T05:46:43;12.53;;;3.60;;
11921;SDS011;6021;51.182;3.160;2023-09-19T05:49:14;12.40;;;3.70;;
11921;SDS011;6021;51.182;3.160;2023-09-19T05:51:42;12.10;;;3.53;;
11921;SDS011;6021;51.182;3.160;2023-09-19T05:54:10;10.97;;;3.10;;
11921;SDS011;6021;51.182;3.160;2023-09-19T05:56:39;12.57;;;3.33;;
11921;SDS011;6021;51.182;3.160;2023-09-19T05:59:08;10.63;;;3.70;;
11921;SDS011;6021;51.182;3.160;2023-09-19T06:01:36;10.50;;;3.27;;
11921;SDS011;6021;51.182;3.160;2023-09-19T06:04:05;13.23;;;3.87;;
11921;SDS011;6021;51.182;3.160;2023-09-19T06:06:33;8.87;;;3.43;;
11921;SDS011;6021;51.182;3.160;2023-09-19T06:09:03;12.20;;;3.70;;
11921;SDS011;6021;51.182;3.160;2023-09-19T06:11:32;10.03;;;3.30;;
11921;SDS011;6021;51.182;3.160;2023-09-19T06:14:01;9.80;;;3.17;;
11921;SDS011;6021;51.182;3.160;2023-09-19T06:16:30;10.30;;;3.37;;
11921;SDS011;6021;51.182;3.160;2023-09-19T06:19:01;9.80;;;3.20;;
11921;SDS011;6021;51.182;3.160;2023-09-19T06:21:29;11.20;;;3.50;;
11921;SDS011;6021;51.182;3.160;2023-09-19T06:23:58;9.93;;;3.30;;
11921;SDS011;6021;51.182;3.160;2023-09-19T06:26:27;9.80;;;3.43;;
11921;SDS011;6021;51.182;3.160;2023-09-19T06:28:57;10.23;;;3.27;;
11921;SDS011;6021;51.182;3.160;2023-09-19T06:31:26;10.90;;;3.60;;
11921;SDS011;6021;51.182;3.160;2023-09-19T06:33:54;11.77;;;3.40;;
11921;SDS011;6021;51.182;3.160;2023-09-19T06:36:23;10.37;;;3.17;;
11921;SDS011;6021;51.182;3.160;2023-09-19T06:38:51;8.23;;;3.07;;
11921;SDS011;6021;51.182;3.160;2023-09-19T06:41:20;12.27;;;3.20;;
11921;SDS011;6021;51.182;3.160;2023-09-19T06:43:50;12.67;;;3.77;;
11921;SDS011;6021;51.182;3.160;2023-09-19T06:46:20;11.27;;;3.13;;
11921;SDS011;6021;51.182;3.160;2023-09-19T06:48:48;12.17;;;3.40;;
11921;SDS011;6021;51.182;3.160;2023-09-19T06:51:18;11.93;;;3.40;;
11921;SDS011;6021;51.182;3.160;2023-09-19T06:53:47;11.83;;;3.53;;
11921;SDS011;6021;51.182;3.160;2023-09-19T06:56:15;11.60;;;3.23;;
11921;SDS011;6021;51.182;3.160;2023-09-19T06:58:43;10.00;;;3.37;;
11921;SDS011;6021;51.182;3.160;2023-09-19T07:01:12;11.33;;;3.70;;
11921;SDS011;6021;51.182;3.160;2023-09-19T07:03:41;12.03;;;3.30;;
11921;SDS011;6021;51.182;3.160;2023-09-19T07:06:11;11.43;;;3.20;;
11921;SDS011;6021;51.182;3.160;2023-09-19T07:08:40;10.67;;;3.43;;
11921;SDS011;6021;51.182;3.160;2023-09-19T07:11:08;11.97;;;3.60;;
11921;SDS011;6021;51.182;3.160;2023-09-19T07:13:38;11.70;;;3.40;;
11921;SDS011;6021;51.182;3.160;2023-09-19T07:16:07;9.77;;;3.20;;
11921;SDS011;6021;51.182;3.160;2023-09-19T07:18:36;13.33;;;3.80;;
11921;SDS011;6021;51.182;3.160;2023-09-19T07:21:05;12.43;;;3.30;;
11921;SDS011;6021;51.182;3.160;2023-09-19T07:23:33;9.97;;;3.33;;
11921;SDS011;6021;51.182;3.160;2023-09-19T07:26:01;9.87;;;3.27;;
11921;SDS011;6021;51.182;3.160;2023-09-19T07:28:31;10.03;;;3.50;;
11921;SDS011;6021;51.182;3.160;2023-09-19T07:31:02;9.23;;;3.20;;
11921;SDS011;6021;51.182;3.160;2023-09-19T07:33:31;11.40;;;3.50;;
11921;SDS011;6021;51.182;3.160;2023-09-19T07:35:59;9.33;;;3.20;;
11921;SDS011;6021;51.182;3.160;2023-09-19T07:38:28;9.03;;;3.40;;
11921;SDS011;6021;51.182;3.160;2023-09-19T07:41:02;9.67;;;3.30;;
11921;SDS011;6021;51.182;3.160;2023-09-19T07:43:31;12.43;;;3.67;;
11921;SDS011;6021;51.182;3.160;2023-09-19T07:46:06;8.63;;;3.13;;
11921;SDS011;6021;51.182;3.160;2023-09-19T07:48:38;10.20;;;3.27;;
11921;SDS011;6021;51.182;3.160;2023-09-19T07:51:08;12.90;;;3.40;;
11921;SDS011;6021;51.182;3.160;2023-09-19T07:53:37;10.83;;;3.10;;
11921;SDS011;6021;51.182;3.160;2023-09-19T07:56:05;10.40;;;3.23;;
11921;SDS011;6021;51.182;3.160;2023-09-19T07:58:35;10.47;;;3.43;;
11921;SDS011;6021;51.182;3.160;2023-09-19T08:01:05;10.93;;;3.37;;
11921;SDS011;6021;51.182;3.160;2023-09-19T08:03:35;9.03;;;3.13;;
11921;SDS011;6021;51.182;3.160;2023-09-19T08:06:06;11.27;;;3.47;;
11921;SDS011;6021;51.182;3.160;2023-09-19T08:08:35;10.57;;;3.13;;
11921;SDS011;6021;51.182;3.160;2023-09-19T08:11:07;9.97;;;3.13;;
11921;SDS011;6021;51.182;3.160;2023-09-19T08:13:37;9.57;;;3.20;;
11921;SDS011;6021;51.182;3.160;2023-09-19T08:16:08;11.03;;;3.17;;
11921;SDS011;6021;51.182;3.160;2023-09-19T08:18:37;9.30;;;3.13;;
11921;SDS011;6021;51.182;3.160;2023-09-19T08:21:11;9.03;;;3.13;;
11921;SDS011;6021;51.182;3.160;2023-09-19T08:23:41;9.63;;;3.30;;
11921;SDS011;6021;51.182;3.160;2023-09-19T08:26:09;11.63;;;3.10;;
11921;SDS011;6021;51.182;3.160;2023-09-19T08:28:38;9.03;;;3.30;;
11921;SDS011;6021;51.182;3.160;2023-09-19T08:31:08;10.07;;;3.10;;
11921;SDS011;6021;51.182;3.160;2023-09-19T08:33:37;11.40;;;3.33;;
11921;SDS011;6021;51.182;3.160;2023-09-19T08:36:06;11.00;;;3.07;;
11921;SDS011;6021;51.182;3.160;2023-09-19T08:38:36;8.83;;;2.97;;
11921;SDS011;6021;51.182;3.160;2023-09-19T08:41:07;11.30;;;3.10;;
11921;SDS011;6021;51.182;3.160;2023-09-19T08:43:36;10.57;;;2.97;;
11921;SDS011;6021;51.182;3.160;2023-09-19T08:46:11;9.77;;;3.00;;
11921;SDS011;6021;51.182;3.160;2023-09-19T08:48:45;8.47;;;2.70;;
11921;SDS011;6021;51.182;3.160;2023-09-19T08:51:26;8.23;;;2.70;;
11921;SDS011;6021;51.182;3.160;2023-09-19T08:54:03;9.30;;;2.70;;
11921;SDS011;6021;51.182;3.160;2023-09-19T08:56:33;8.73;;;3.00;;
11921;SDS011;6021;51.182;3.160;2023-09-19T08:59:05;8.87;;;2.80;;
11921;SDS011;6021;51.182;3.160;2023-09-19T09:01:38;10.20;;;3.17;;
11921;SDS011;6021;51.182;3.160;2023-09-19T09:04:08;8.47;;;2.87;;
11921;SDS011;6021;51.182;3.160;2023-09-19T09:06:38;8.17;;;2.60;;
11921;SDS011;6021;51.182;3.160;2023-09-19T09:09:09;11.03;;;2.63;;
11921;SDS011;6021;51.182;3.160;2023-09-19T09:11:38;8.70;;;2.60;;
11921;SDS011;6021;51.182;3.160;2023-09-19T09:14:07;9.40;;;2.63;;
11921;SDS011;6021;51.182;3.160;2023-09-19T09:16:35;9.30;;;2.80;;
11921;SDS011;6021;51.182;3.160;2023-09-19T09:19:04;8.63;;;2.47;;
11921;SDS011;6021;51.182;3.160;2023-09-19T09:21:32;7.87;;;2.50;;
11921;SDS011;6021;51.182;3.160;2023-09-19T09:26:55;8.60;;;2.37;;
11921;SDS011;6021;51.182;3.160;2023-09-19T09:29:43;7.80;;;2.67;;
11921;SDS011;6021;51.182;3.160;2023-09-19T09:32:24;7.97;;;2.60;;
11921;SDS011;6021;51.182;3.160;2023-09-19T09:34:57;5.57;;;2.20;;
11921;SDS011;6021;51.182;3.160;2023-09-19T09:37:29;7.43;;;2.30;;
11921;SDS011;6021;51.182;3.160;2023-09-19T09:39:58;7.97;;;2.40;;
11921;SDS011;6021;51.182;3.160;2023-09-19T09:42:36;7.73;;;2.57;;
11921;SDS011;6021;51.182;3.160;2023-09-19T09:45:12;5.50;;;2.10;;
11921;SDS011;6021;51.182;3.160;2023-09-19T09:48:03;5.13;;;2.20;;
11921;SDS011;6021;51.182;3.160;2023-09-19T09:50:34;6.40;;;2.33;;
11921;SDS011;6021;51.182;3.160;2023-09-19T09:53:19;6.87;;;2.10;;
11921;SDS011;6021;51.182;3.160;2023-09-19T09:56:07;6.63;;;2.23;;
11921;SDS011;6021;51.182;3.160;2023-09-19T09:58:47;9.50;;;2.43;;
11921;SDS011;6021;51.182;3.160;2023-09-19T10:01:19;7.10;;;2.40;;
11921;SDS011;6021;51.182;3.160;2023-09-19T16:54:19;7.17;;;3.57;;
11921;SDS011;6021;51.182;3.160;2023-09-19T16:56:48;8.40;;;3.80;;
11921;SDS011;6021;51.182;3.160;2023-09-19T17:00:14;6.27;;;3.40;;
11921;SDS011;6021;51.182;3.160;2023-09-19T17:02:45;8.13;;;3.90;;
11921;SDS011;6021;51.182;3.160;2023-09-19T17:05:14;5.83;;;3.50;;
11921;SDS011;6021;51.182;3.160;2023-09-19T17:07:44;7.07;;;3.73;;
11921;SDS011;6021;51.182;3.160;2023-09-19T17:10:12;9.40;;;3.90;;
11921;SDS011;6021;51.182;3.160;2023-09-19T17:12:41;8.97;;;4.20;;
11921;SDS011;6021;51.182;3.160;2023-09-19T17:15:09;8.43;;;3.80;;
11921;SDS011;6021;51.182;3.160;2023-09-19T17:17:37;7.17;;;3.87;;
11921;SDS011;6021;51.182;3.160;2023-09-19T17:20:06;7.60;;;3.70;;
11921;SDS011;6021;51.182;3.160;2023-09-19T17:22:36;8.37;;;4.00;;
11921;SDS011;6021;51.182;3.160;2023-09-19T17:25:04;9.60;;;4.23;;
11921;SDS011;6021;51.182;3.160;2023-09-19T17:27:34;7.63;;;4.10;;
11921;SDS011;6021;51.182;3.160;2023-09-19T17:30:04;8.63;;;3.93;;
11921;SDS011;6021;51.182;3.160;2023-09-19T17:32:35;8.27;;;4.20;;
11921;SDS011;6021;51.182;3.160;2023-09-19T17:35:03;10.40;;;3.97;;
11921;SDS011;6021;51.182;3.160;2023-09-19T17:37:35;8.93;;;3.90;;
11921;SDS011;6021;51.182;3.160;2023-09-19T17:40:11;8.90;;;4.27;;
11921;SDS011;6021;51.182;3.160;2023-09-19T17:42:37;6.57;;;3.57;;
11921;SDS011;6021;51.182;3.160;2023-09-19T17:45:08;8.50;;;3.80;;
11921;SDS011;6021;51.182;3.160;2023-09-19T17:47:44;7.27;;;3.70;;
11921;SDS011;6021;51.182;3.160;2023-09-19T17:50:12;8.27;;;4.00;;
11921;SDS011;6021;51.182;3.160;2023-09-19T17:52:41;8.50;;;4.03;;
11921;SDS011;6021;51.182;3.160;2023-09-19T17:55:13;8.37;;;4.10;;
11921;SDS011;6021;51.182;3.160;2023-09-19T17:57:43;8.30;;;3.80;;
11921;SDS011;6021;51.182;3.160;2023-09-19T18:00:13;9.27;;;4.17;;
11921;SDS011;6021;51.182;3.160;2023-09-19T18:02:42;8.10;;;4.20;;
11921;SDS011;6021;51.182;3.160;2023-09-19T18:05:11;9.03;;;3.90;;
11921;SDS011;6021;51.182;3.160;2023-09-19T18:07:44;8.63;;;4.07;;
11921;SDS011;6021;51.182;3.160;2023-09-19T18:10:14;7.10;;;4.07;;
11921;SDS011;6021;51.182;3.160;2023-09-19T18:12:43;7.97;;;3.87;;
11921;SDS011;6021;51.182;3.160;2023-09-19T18:15:12;9.03;;;4.27;;
11921;SDS011;6021;51.182;3.160;2023-09-19T18:17:40;7.97;;;4.00;;
11921;SDS011;6021;51.182;3.160;2023-09-19T18:20:09;9.20;;;4.20;;
11921;SDS011;6021;51.182;3.160;2023-09-19T18:22:38;9.40;;;4.10;;
11921;SDS011;6021;51.182;3.160;2023-09-19T18:25:06;8.03;;;4.40;;
11921;SDS011;6021;51.182;3.160;2023-09-19T18:27:34;8.30;;;4.00;;
11921;SDS011;6021;51.182;3.160;2023-09-19T18:30:04;8.37;;;4.03;;
11921;SDS011;6021;51.182;3.160;2023-09-19T18:32:33;9.07;;;4.00;;
11921;SDS011;6021;51.182;3.160;2023-09-19T18:35:04;8.33;;;3.70;;
11921;SDS011;6021;51.182;3.160;2023-09-19T18:37:34;8.73;;;4.23;;
11921;SDS011;6021;51.182;3.160;2023-09-19T18:40:02;9.60;;;4.07;;
11921;SDS011;6021;51.182;3.160;2023-09-19T18:42:30;7.60;;;3.97;;
11921;SDS011;6021;51.182;3.160;2023-09-19T18:44:59;8.97;;;3.90;;
11921;SDS011;6021;51.182;3.160;2023-09-19T18:47:27;7.07;;;3.80;;
11921;SDS011;6021;51.182;3.160;2023-09-19T18:49:55;11.00;;;4.47;;
11921;SDS011;6021;51.182;3.160;2023-09-19T18:52:24;9.60;;;4.23;;
11921;SDS011;6021;51.182;3.160;2023-09-19T18:54:53;9.13;;;3.90;;
11921;SDS011;6021;51.182;3.160;2023-09-19T18:57:22;8.20;;;3.70;;
11921;SDS011;6021;51.182;3.160;2023-09-19T18:59:51;7.43;;;4.00;;
11921;SDS011;6021;51.182;3.160;2023-09-19T19:02:19;7.60;;;3.47;;
11921;SDS011;6021;51.182;3.160;2023-09-19T19:04:49;7.80;;;3.77;;
11921;SDS011;6021;51.182;3.160;2023-09-19T19:07:18;10.00;;;3.80;;
11921;SDS011;6021;51.182;3.160;2023-09-19T19:09:48;9.63;;;4.23;;
11921;SDS011;6021;51.182;3.160;2023-09-19T19:12:16;7.83;;;3.90;;
11921;SDS011;6021;51.182;3.160;2023-09-19T19:14:46;7.90;;;3.73;;
11921;SDS011;6021;51.182;3.160;2023-09-19T19:17:14;6.83;;;3.60;;
11921;SDS011;6021;51.182;3.160;2023-09-19T19:19:43;8.77;;;3.60;;
11921;SDS011;6021;51.182;3.160;2023-09-19T19:22:11;8.47;;;4.00;;
11921;SDS011;6021;51.182;3.160;2023-09-19T19:24:40;7.33;;;3.77;;
11921;SDS011;6021;51.182;3.160;2023-09-19T19:27:08;9.27;;;3.50;;
11921;SDS011;6021;51.182;3.160;2023-09-19T19:29:38;8.80;;;3.90;;
11921;SDS011;6021;51.182;3.160;2023-09-19T19:32:06;8.73;;;3.77;;
11921;SDS011;6021;51.182;3.160;2023-09-19T19:34:36;10.93;;;3.90;;
11921;SDS011;6021;51.182;3.160;2023-09-19T19:37:06;9.07;;;4.10;;
11921;SDS011;6021;51.182;3.160;2023-09-19T19:39:37;10.53;;;3.73;;
11921;SDS011;6021;51.182;3.160;2023-09-19T19:42:07;8.50;;;3.83;;
11921;SDS011;6021;51.182;3.160;2023-09-19T19:44:35;9.53;;;3.83;;
11921;SDS011;6021;51.182;3.160;2023-09-19T19:47:04;8.97;;;3.80;;
11921;SDS011;6021;51.182;3.160;2023-09-19T19:49:32;7.57;;;3.73;;
11921;SDS011;6021;51.182;3.160;2023-09-19T19:52:00;8.33;;;3.90;;
11921;SDS011;6021;51.182;3.160;2023-09-19T19:54:30;8.70;;;3.97;;
11921;SDS011;6021;51.182;3.160;2023-09-19T19:56:58;7.23;;;3.90;;
11921;SDS011;6021;51.182;3.160;2023-09-19T19:59:26;9.43;;;4.20;;
11921;SDS011;6021;51.182;3.160;2023-09-19T20:01:55;10.20;;;4.10;;
11921;SDS011;6021;51.182;3.160;2023-09-19T20:04:24;9.50;;;4.10;;
11921;SDS011;6021;51.182;3.160;2023-09-19T20:06:53;11.00;;;4.10;;
11921;SDS011;6021;51.182;3.160;2023-09-19T20:09:22;9.77;;;3.77;;
11921;SDS011;6021;51.182;3.160;2023-09-19T20:11:50;10.40;;;4.20;;
11921;SDS011;6021;51.182;3.160;2023-09-19T20:14:19;9.70;;;4.07;;
11921;SDS011;6021;51.182;3.160;2023-09-19T20:16:47;8.60;;;4.17;;
11921;SDS011;6021;51.182;3.160;2023-09-19T20:19:17;9.30;;;4.43;;
11921;SDS011;6021;51.182;3.160;2023-09-19T20:21:47;8.10;;;4.00;;
11921;SDS011;6021;51.182;3.160;2023-09-19T20:24:15;8.67;;;3.90;;
11921;SDS011;6021;51.182;3.160;2023-09-19T20:26:46;9.10;;;3.70;;
11921;SDS011;6021;51.182;3.160;2023-09-19T20:29:14;10.33;;;4.10;;
11921;SDS011;6021;51.182;3.160;2023-09-19T20:31:42;8.97;;;4.00;;
11921;SDS011;6021;51.182;3.160;2023-09-19T20:34:11;9.10;;;3.93;;
11921;SDS011;6021;51.182;3.160;2023-09-19T20:36:40;7.90;;;3.60;;
11921;SDS011;6021;51.182;3.160;2023-09-19T20:39:08;9.37;;;3.87;;
11921;SDS011;6021;51.182;3.160;2023-09-19T20:41:37;10.70;;;3.73;;
11921;SDS011;6021;51.182;3.160;2023-09-19T20:44:05;10.37;;;4.00;;
11921;SDS011;6021;51.182;3.160;2023-09-19T20:46:34;14.20;;;4.03;;
11921;SDS011;6021;51.182;3.160;2023-09-19T20:49:03;9.70;;;3.63;;
11921;SDS011;6021;51.182;3.160;2023-09-19T20:51:32;10.67;;;3.90;;
11921;SDS011;6021;51.182;3.160;2023-09-19T20:56:49;9.67;;;3.90;;
11921;SDS011;6021;51.182;3.160;2023-09-19T20:59:19;6.23;;;3.70;;
11921;SDS011;6021;51.182;3.160;2023-09-19T21:01:48;7.13;;;3.57;;
11921;SDS011;6021;51.182;3.160;2023-09-19T21:04:17;8.13;;;3.70;;
11921;SDS011;6021;51.182;3.160;2023-09-19T21:06:46;9.17;;;3.60;;
11921;SDS011;6021;51.182;3.160;2023-09-19T21:09:15;7.70;;;3.50;;
11921;SDS011;6021;51.182;3.160;2023-09-19T21:14:32;6.87;;;3.70;;
11921;SDS011;6021;51.182;3.160;2023-09-19T21:17:01;7.17;;;3.80;;
11921;SDS011;6021;51.182;3.160;2023-09-19T21:19:30;7.43;;;4.20;;
11921;SDS011;6021;51.182;3.160;2023-09-19T21:21:58;9.07;;;3.97;;
11921;SDS011;6021;51.182;3.160;2023-09-19T21:24:27;9.80;;;4.00;;
11921;SDS011;6021;51.182;3.160;2023-09-19T21:26:58;10.50;;;3.97;;
11921;SDS011;6021;51.182;3.160;2023-09-19T21:29:31;7.57;;;3.63;;
11921;SDS011;6021;51.182;3.160;2023-09-19T21:31:59;9.53;;;3.90;;
11921;SDS011;6021;51.182;3.160;2023-09-19T21:34:28;12.77;;;4.00;;
11921;SDS011;6021;51.182;3.160;2023-09-19T21:36:57;9.67;;;4.30;;
11921;SDS011;6021;51.182;3.160;2023-09-19T21:39:25;8.07;;;3.87;;
11921;SDS011;6021;51.182;3.160;2023-09-19T21:41:53;8.27;;;3.90;;
11921;SDS011;6021;51.182;3.160;2023-09-19T21:44:22;8.40;;;3.80;;
11921;SDS011;6021;51.182;3.160;2023-09-19T21:46:50;8.80;;;4.13;;
11921;SDS011;6021;51.182;3.160;2023-09-19T21:49:20;9.43;;;3.80;;
11921;SDS011;6021;51.182;3.160;2023-09-19T21:51:48;9.80;;;4.13;;
11921;SDS011;6021;51.182;3.160;2023-09-19T21:54:17;9.30;;;3.90;;
11921;SDS011;6021;51.182;3.160;2023-09-19T21:56:45;7.83;;;3.57;;
11921;SDS011;6021;51.182;3.160;2023-09-19T21:59:15;8.93;;;3.73;;
11921;SDS011;6021;51.182;3.160;2023-09-19T22:01:43;9.70;;;3.83;;
11921;SDS011;6021;51.182;3.160;2023-09-19T22:04:11;8.33;;;3.53;;
11921;SDS011;6021;51.182;3.160;2023-09-19T22:06:39;8.67;;;4.00;;
11921;SDS011;6021;51.182;3.160;2023-09-19T22:09:08;8.67;;;3.70;;
11921;SDS011;6021;51.182;3.160;2023-09-19T22:11:36;8.80;;;4.20;;
11921;SDS011;6021;51.182;3.160;2023-09-19T22:14:06;8.83;;;3.70;;
11921;SDS011;6021;51.182;3.160;2023-09-19T22:16:34;8.63;;;3.63;;
11921;SDS011;6021;51.182;3.160;2023-09-19T22:19:05;7.77;;;3.80;;
11921;SDS011;6021;51.182;3.160;2023-09-19T22:21:34;7.87;;;3.60;;
11921;SDS011;6021;51.182;3.160;2023-09-19T22:24:05;8.30;;;3.70;;
11921;SDS011;6021;51.182;3.160;2023-09-19T22:26:35;9.83;;;4.20;;